It's Friday,
December 13th, 2019
User not logged in
[Run Race Header Image][Run Race logo]
  
Race webcasting is attempted by race directors and their support staff. Please remember that conditions under which they're working may make it difficult to post timely webcast updates... your interest and patience is appreciated!
Race Information
Race Name:2nd Annual Indiana Trail 100
Location:Albion
State:Indiana, United States
 button: button: Webcast Autoplay
Event Information
Name of Event:100 Mile Trail
Distance:100 Miles
Started Date/Time:Saturday April 26th, 2014, 5:59:34.15 am
button: Assign Numbers  
Checkpoint:SchIn3
Distance:47.34 Miles
Gun Start Time:Saturday April 26th, 2014 5:59:34.15 am
Calculate Chip Start Time:< not set >
Y or N... Calculate splits based upon participant chip start time?
Allow Early Chip Start Time:< not set >
Y or N... Allow participants a chip start time prior to gun start?
Pos Race
Number
NameAgeSexTimePace 
1141Shan Riggs35M7:23:35.59:22.2Sat Apr 26th, 2014 1:23:09 pm
2166Jim Trout44M7:32:00.99:32.9Sat Apr 26th, 2014 1:31:35 pm
314John Bertram51M7:39:55.59:42.9Sat Apr 26th, 2014 1:39:29 pm
4182Craig Wheeler52M7:55:24.310:02.5Sat Apr 26th, 2014 1:54:58 pm
534Vincent Corona30M7:58:59.010:07.1Sat Apr 26th, 2014 1:58:33 pm
641Paul Dott31M7:59:02.410:07.1Sat Apr 26th, 2014 1:58:36 pm
7149Todd Siebert32M8:01:49.010:10.7Sat Apr 26th, 2014 2:01:23 pm
8148Travis Shields37M8:01:59.710:10.9Sat Apr 26th, 2014 2:01:33 pm
9151Jen Skelly34F8:08:35.110:19.2Sat Apr 26th, 2014 2:08:09 pm
10158Paul Stofko38M8:09:50.410:20.8Sat Apr 26th, 2014 2:09:24 pm
1126Jessica Campbell21F8:11:11.010:22.5Sat Apr 26th, 2014 2:10:45 pm
1279David E. Jackson36M8:20:24.610:34.2Sat Apr 26th, 2014 2:19:58 pm
1328Tony Cesario50M8:30:57.810:47.6Sat Apr 26th, 2014 2:30:31 pm
14129Ben Pearce19M8:38:32.910:57.2Sat Apr 26th, 2014 2:38:07 pm
15161Mika Thewes22F8:42:38.411:02.4Sat Apr 26th, 2014 2:42:12 pm
16140Kirk Ridenour54M8:43:18.711:03.3Sat Apr 26th, 2014 2:42:52 pm
1787Ryan "Stormy" Knight37M8:46:46.611:07.7Sat Apr 26th, 2014 2:46:20 pm
18127Daniel Paige34M8:47:03.411:08.0Sat Apr 26th, 2014 2:46:37 pm
1945Nicholas Eiben19M8:54:44.011:17.7Sat Apr 26th, 2014 2:54:18 pm
2020Erin Brady42F9:00:13.811:24.7Sat Apr 26th, 2014 2:59:47 pm
21104David Mentjes44M9:00:55.211:25.6Sat Apr 26th, 2014 3:00:29 pm
22119David Nichols53M9:03:50.311:29.3Sat Apr 26th, 2014 3:03:24 pm
23145James Schroeder37M9:03:53.511:29.3Sat Apr 26th, 2014 3:03:27 pm
24162Mark Thill38M9:06:31.211:32.7Sat Apr 26th, 2014 3:06:05 pm
25177Eric Fritz46M9:08:05.211:34.7Sat Apr 26th, 2014 3:07:39 pm
2668Shawn Hawk49M9:11:02.111:38.4Sat Apr 26th, 2014 3:10:36 pm
27112Frank Morris32M9:11:16.111:38.7Sat Apr 26th, 2014 3:10:50 pm
2836John Cushma40M9:11:34.911:39.1Sat Apr 26th, 2014 3:11:09 pm
29184Kinga Kokoc35F9:11:41.711:39.2Sat Apr 26th, 2014 3:11:15 pm
3050Linda Keuneke50F9:13:53.911:42.0Sat Apr 26th, 2014 3:13:28 pm
3162Martin Guthrie47M9:16:57.211:45.9Sat Apr 26th, 2014 3:16:31 pm
3246Mike Else45M9:19:08.811:48.7Sat Apr 26th, 2014 3:18:42 pm
3354Tom Fifer51M9:19:38.611:49.3Sat Apr 26th, 2014 3:19:12 pm
34108Joshua Mock32M9:20:21.211:50.2Sat Apr 26th, 2014 3:19:55 pm
3557Mark Gavorski48M9:22:11.511:52.5Sat Apr 26th, 2014 3:21:45 pm
36126Julie Pagel29F9:22:39.311:53.1Sat Apr 26th, 2014 3:22:13 pm
37113SIAMAK MOSTOUFI39M9:24:00.711:54.8Sat Apr 26th, 2014 3:23:34 pm
3824todd brown45M9:24:01.311:54.9Sat Apr 26th, 2014 3:23:35 pm
39183Anastasia Andrychowski34F9:25:00.911:56.1Sat Apr 26th, 2014 3:24:35 pm
4063Jerret Halter32M9:25:01.311:56.1Sat Apr 26th, 2014 3:24:35 pm
41114Larry Mullinnix49M9:26:42.511:58.3Sat Apr 26th, 2014 3:26:16 pm
4244Tanya Eggert44F9:28:19.812:00.3Sat Apr 26th, 2014 3:27:53 pm
43123Reggie O'HARA45M9:28:23.412:00.4Sat Apr 26th, 2014 3:27:57 pm
445LEE ANDERSON56M9:28:29.712:00.5Sat Apr 26th, 2014 3:28:03 pm
4572Rich Henderson58M9:31:20.312:04.1Sat Apr 26th, 2014 3:30:54 pm
46125Jeff Oliver40M9:33:51.312:07.3Sat Apr 26th, 2014 3:33:25 pm
47133Richard Plezia55M9:35:19.612:09.2Sat Apr 26th, 2014 3:34:53 pm
48103Chris McMahon54M9:37:03.012:11.4Sat Apr 26th, 2014 3:36:37 pm
49115Carolynn Nauta32F9:37:33.112:12.0Sat Apr 26th, 2014 3:37:07 pm
5098Kenneth Lynn42M9:38:12.312:12.8Sat Apr 26th, 2014 3:37:46 pm
51180Michael Linkogel43M9:40:11.512:15.4Sat Apr 26th, 2014 3:39:45 pm
5217Andrew Borst43M9:41:56.412:17.6Sat Apr 26th, 2014 3:41:30 pm
53134dave potter49M9:44:02.312:20.2Sat Apr 26th, 2014 3:43:36 pm
5442Michael Dowdell38M9:44:35.512:20.9Sat Apr 26th, 2014 3:44:09 pm
55154Mike Smith56M9:44:51.612:21.3Sat Apr 26th, 2014 3:44:25 pm
5661Graham Grove36M9:46:25.312:23.2Sat Apr 26th, 2014 3:45:59 pm
57105Craig Meseko29M9:47:22.412:24.5Sat Apr 26th, 2014 3:46:56 pm
5821Bob Brashear55M9:48:49.612:26.3Sat Apr 26th, 2014 3:48:23 pm
598Brian Barger53M9:50:40.712:28.6Sat Apr 26th, 2014 3:50:14 pm
60107Kirk Misaka55M9:56:28.112:36.0Sat Apr 26th, 2014 3:56:02 pm
61156Phil Stapert47M10:01:07.212:41.9Sat Apr 26th, 2014 4:00:41 pm
6240Noe j Dominguez45M10:02:33.412:43.7Sat Apr 26th, 2014 4:02:07 pm
6376Scott Hudson46M10:05:26.612:47.4Sat Apr 26th, 2014 4:05:00 pm
6456Helen Garen49F10:05:32.912:47.5Sat Apr 26th, 2014 4:05:07 pm
6566Dick Canterbury66M10:06:15.612:48.4Sat Apr 26th, 2014 4:05:49 pm
66143Matthew Santner37M10:06:54.712:49.2Sat Apr 26th, 2014 4:06:28 pm
67116David Nelson26M10:07:26.812:49.9Sat Apr 26th, 2014 4:07:00 pm
68117Peter Nelson50M10:07:36.312:50.1Sat Apr 26th, 2014 4:07:10 pm
69159Steve Sunbury44M10:09:02.212:51.9Sat Apr 26th, 2014 4:08:36 pm
7091Bill Kulwicki55M10:10:43.012:54.0Sat Apr 26th, 2014 4:10:17 pm
7183Chris Junken35M10:12:15.012:56.0Sat Apr 26th, 2014 4:11:49 pm
72169Chris Walker34M10:12:21.012:56.1Sat Apr 26th, 2014 4:11:55 pm
73178Joe Cuthbertson39M10:12:43.112:56.6Sat Apr 26th, 2014 4:12:17 pm
74165Judd Trayling40M10:14:51.612:59.3Sat Apr 26th, 2014 4:14:25 pm
75147mark sheeran54M10:15:36.113:00.2Sat Apr 26th, 2014 4:15:10 pm
76181Rene Samano28M10:22:59.213:09.6Sat Apr 26th, 2014 4:22:33 pm
7725Aaron Butler32M10:27:51.113:15.8Sat Apr 26th, 2014 4:27:25 pm
7839Nathan DeWall34M10:29:26.213:17.8Sat Apr 26th, 2014 4:29:00 pm
79111James Cooper44M10:30:17.513:18.8Sat Apr 26th, 2014 4:29:51 pm
80124Ethan Olds24M10:34:43.313:24.5Sat Apr 26th, 2014 4:34:17 pm
81135Rob Putz48M10:35:16.313:25.2Sat Apr 26th, 2014 4:34:50 pm
8282Juan Juarez42M10:38:06.413:28.8Sat Apr 26th, 2014 4:37:40 pm
83171Marci Wease37F10:38:46.213:29.6Sat Apr 26th, 2014 4:38:20 pm
8452Jamie Farley35M10:39:20.713:30.3Sat Apr 26th, 2014 4:38:54 pm
85170ben wallace57M10:39:42.813:30.8Sat Apr 26th, 2014 4:39:16 pm
86163Derek Tinnin46M10:42:47.513:34.7Sat Apr 26th, 2014 4:42:21 pm
8793John Leighton53M10:43:01.413:35.0Sat Apr 26th, 2014 4:42:35 pm
88174Randall Yost55M10:49:33.913:43.3Sat Apr 26th, 2014 4:49:08 pm
896Ric Angara43M10:52:00.513:46.4Sat Apr 26th, 2014 4:51:34 pm
9073Jeff Hogan45M10:52:07.313:46.5Sat Apr 26th, 2014 4:51:41 pm
91146Rob Schultz47M10:52:50.313:47.4Sat Apr 26th, 2014 4:52:24 pm
922Kurt Adams35M10:52:58.713:47.6Sat Apr 26th, 2014 4:52:32 pm
93130Alfredo ''Moose'' Pedro45M10:54:29.813:49.5Sat Apr 26th, 2014 4:54:03 pm
9416toni bohannon46F10:54:51.213:50.0Sat Apr 26th, 2014 4:54:25 pm
9564Cindylee Torres54F10:55:43.213:51.1Sat Apr 26th, 2014 4:55:17 pm
964Jonathon Amlung44M10:55:50.413:51.2Sat Apr 26th, 2014 4:55:24 pm
9769Kent Heck52M10:58:23.613:54.5Sat Apr 26th, 2014 4:57:57 pm
9878Lauren Idzik43F11:01:11.813:58.0Sat Apr 26th, 2014 5:00:45 pm
9974Alex "ACE" Honigford33M11:08:21.114:07.1Sat Apr 26th, 2014 5:07:55 pm
10099Daniel Maddox38M11:08:43.314:07.6Sat Apr 26th, 2014 5:08:17 pm
10155Zach Franklin31M11:09:30.214:08.5Sat Apr 26th, 2014 5:09:04 pm
102179Elizabeth Hermans31F11:10:00.714:09.2Sat Apr 26th, 2014 5:09:34 pm
103136Rashad Qadir50M11:17:21.214:18.5Sat Apr 26th, 2014 5:16:55 pm
104121Mark Norfleet57M11:18:38.314:20.1Sat Apr 26th, 2014 5:18:12 pm
10558Gary Gentry48M11:24:56.914:28.1Sat Apr 26th, 2014 5:24:31 pm
10648Karen Erba44F11:25:09.814:28.4Sat Apr 26th, 2014 5:24:43 pm
107120Caleb Nolen28M11:26:49.614:30.5Sat Apr 26th, 2014 5:26:23 pm
1083Justin Alford40M11:31:23.214:36.3Sat Apr 26th, 2014 5:30:57 pm
10931Mark Coates33M11:31:41.614:36.7Sat Apr 26th, 2014 5:31:15 pm
11086John Klarquist49M11:33:46.614:39.3Sat Apr 26th, 2014 5:33:20 pm
111142Steve Riportella48M11:35:23.714:41.4Sat Apr 26th, 2014 5:34:57 pm
112122Terry Null55M11:37:40.514:44.3Sat Apr 26th, 2014 5:37:14 pm
113132Catherine Pinkston29F11:39:07.014:46.1Sat Apr 26th, 2014 5:38:41 pm
11453Ramon Ferrer Jr34M11:39:07.514:46.1Sat Apr 26th, 2014 5:38:41 pm
11535Joe Cortez49M11:41:33.414:49.2Sat Apr 26th, 2014 5:41:07 pm
116168Jesse Vasquez38M11:43:05.214:51.1Sat Apr 26th, 2014 5:42:39 pm
11733Aaron Conner41M11:46:02.014:54.8Sat Apr 26th, 2014 5:45:36 pm
118176Stan Zygmunt51M11:47:39.314:56.9Sat Apr 26th, 2014 5:47:13 pm
11918James Bowers36M11:47:39.314:56.9
120137Jamie Quarandillo40F11:47:39.414:56.9Sat Apr 26th, 2014 5:47:13 pm
1219Crystal Barton38F11:48:48.314:58.4Sat Apr 26th, 2014 5:48:22 pm
12238James Davidson51M11:48:49.014:58.4Sat Apr 26th, 2014 5:48:23 pm
12312Richard Barton61M11:48:50.014:58.4Sat Apr 26th, 2014 5:48:24 pm
12470Mike Heider54M11:50:22.815:00.4Sat Apr 26th, 2014 5:49:56 pm
125101Sondra Marker50F11:51:34.315:01.9Sat Apr 26th, 2014 5:51:08 pm
12610Kathy Barton57F11:51:42.215:02.0Sat Apr 26th, 2014 5:51:16 pm
12711Mark Barton57M11:51:55.615:02.3Sat Apr 26th, 2014 5:51:29 pm
128150Robert Siscoe59M11:57:57.315:10.0Sat Apr 26th, 2014 5:57:31 pm
12947David Englund46M12:07:26.615:22.0Sat Apr 26th, 2014 6:07:00 pm
13081MELISSA JOYCE-HASSAN49F12:07:54.315:22.6Sat Apr 26th, 2014 6:07:28 pm
131173Michael Wolff41M12:20:37.515:38.7Sat Apr 26th, 2014 6:20:11 pm
13290Steven Kuhl62M12:20:39.215:38.7Sat Apr 26th, 2014 6:20:13 pm
133102Rick McClain52M12:23:23.715:42.2Sat Apr 26th, 2014 6:22:57 pm
134172Kenneth Westerman55M12:26:47.115:46.5Sat Apr 26th, 2014 6:26:21 pm
13515sandra bocchicchio41F12:27:06.915:46.9Sat Apr 26th, 2014 6:26:41 pm
13623Kimmie Brown34F12:27:29.415:47.4Sat Apr 26th, 2014 6:27:03 pm
13797Suann Lundsberg38F12:29:59.615:50.6Sat Apr 26th, 2014 6:29:33 pm
138167Ali Turfe50M12:44:29.216:08.9Sat Apr 26th, 2014 6:44:03 pm
139138Frank Rampton57M13:06:36.716:37.0Sat Apr 26th, 2014 7:06:10 pm
1407REGINA ARVIN41F13:13:53.416:46.2Sat Apr 26th, 2014 7:13:27 pm
141131Scott Peterson38M13:16:26.316:49.4Sat Apr 26th, 2014 7:16:00 pm
14251Dan Fabish18M13:22:12.716:56.7Sat Apr 26th, 2014 7:21:46 pm
143157Fred Steuber46M13:28:10.917:04.3Sat Apr 26th, 2014 7:27:45 pm
14475Bruce Houston57M13:40:20.317:19.7Sat Apr 26th, 2014 7:39:54 pm
14527Dennis Cantrell53M13:54:02.017:37.1Sat Apr 26th, 2014 7:53:36 pm

Event Information
Name of Event:50 Mile Trail
Distance:50 Miles
Started Date/Time:Saturday April 26th, 2014, 5:59:34.15 am
button: Assign Numbers 
2004-2019 : All rights reserved
Terms and Conditions